sensor_id;sensor_type;location;lat;lon;timestamp;P1;durP1;ratioP1;P2;durP2;ratioP2
17854;SDS011;9053;53.358;6.382;2023-03-03T00:00:15;6.97;;;6.20;;
17854;SDS011;9053;53.358;6.382;2023-03-03T00:02:46;7.10;;;6.07;;
17854;SDS011;9053;53.358;6.382;2023-03-03T00:05:16;6.80;;;5.70;;
17854;SDS011;9053;53.358;6.382;2023-03-03T00:07:46;6.30;;;5.70;;
17854;SDS011;9053;53.358;6.382;2023-03-03T00:10:19;6.60;;;5.90;;
17854;SDS011;9053;53.358;6.382;2023-03-03T00:12:48;6.73;;;6.03;;
17854;SDS011;9053;53.358;6.382;2023-03-03T00:15:21;6.73;;;6.03;;
17854;SDS011;9053;53.358;6.382;2023-03-03T00:17:53;5.93;;;5.30;;
17854;SDS011;9053;53.358;6.382;2023-03-03T00:20:28;6.60;;;6.00;;
17854;SDS011;9053;53.358;6.382;2023-03-03T00:25:51;6.10;;;5.40;;
17854;SDS011;9053;53.358;6.382;2023-03-03T00:28:23;6.60;;;5.83;;
17854;SDS011;9053;53.358;6.382;2023-03-03T00:30:56;6.27;;;5.67;;
17854;SDS011;9053;53.358;6.382;2023-03-03T00:33:28;7.27;;;6.17;;
17854;SDS011;9053;53.358;6.382;2023-03-03T00:41:56;6.00;;;5.40;;
17854;SDS011;9053;53.358;6.382;2023-03-03T00:44:31;6.97;;;6.10;;
17854;SDS011;9053;53.358;6.382;2023-03-03T00:50:24;7.53;;;6.07;;
17854;SDS011;9053;53.358;6.382;2023-03-03T00:53:02;6.67;;;6.07;;
17854;SDS011;9053;53.358;6.382;2023-03-03T00:55:34;6.77;;;6.07;;
17854;SDS011;9053;53.358;6.382;2023-03-03T00:58:07;6.80;;;5.97;;
17854;SDS011;9053;53.358;6.382;2023-03-03T01:00:38;7.33;;;6.23;;
17854;SDS011;9053;53.358;6.382;2023-03-03T01:03:11;7.00;;;5.97;;
17854;SDS011;9053;53.358;6.382;2023-03-03T01:05:43;7.13;;;6.00;;
17854;SDS011;9053;53.358;6.382;2023-03-03T01:08:19;7.13;;;6.40;;
17854;SDS011;9053;53.358;6.382;2023-03-03T01:10:51;6.30;;;5.67;;
17854;SDS011;9053;53.358;6.382;2023-03-03T01:13:26;6.50;;;5.77;;
17854;SDS011;9053;53.358;6.382;2023-03-03T01:15:58;6.47;;;5.40;;
17854;SDS011;9053;53.358;6.382;2023-03-03T01:18:30;7.43;;;6.43;;
17854;SDS011;9053;53.358;6.382;2023-03-03T01:21:03;7.00;;;5.57;;
17854;SDS011;9053;53.358;6.382;2023-03-03T01:23:33;7.13;;;6.00;;
17854;SDS011;9053;53.358;6.382;2023-03-03T01:26:03;5.83;;;5.23;;
17854;SDS011;9053;53.358;6.382;2023-03-03T01:28:36;6.27;;;5.67;;
17854;SDS011;9053;53.358;6.382;2023-03-03T01:31:06;7.43;;;6.03;;
17854;SDS011;9053;53.358;6.382;2023-03-03T01:33:37;6.03;;;5.43;;
17854;SDS011;9053;53.358;6.382;2023-03-03T01:36:07;6.53;;;5.87;;
17854;SDS011;9053;53.358;6.382;2023-03-03T01:38:37;6.53;;;5.30;;
17854;SDS011;9053;53.358;6.382;2023-03-03T01:41:10;6.63;;;5.73;;
17854;SDS011;9053;53.358;6.382;2023-03-03T01:43:45;7.13;;;5.80;;
17854;SDS011;9053;53.358;6.382;2023-03-03T01:49:13;6.03;;;5.43;;
17854;SDS011;9053;53.358;6.382;2023-03-03T01:51:48;6.33;;;5.40;;
17854;SDS011;9053;53.358;6.382;2023-03-03T01:54:24;5.70;;;5.13;;
17854;SDS011;9053;53.358;6.382;2023-03-03T01:56:58;6.07;;;5.43;;
17854;SDS011;9053;53.358;6.382;2023-03-03T01:59:34;6.83;;;5.50;;
17854;SDS011;9053;53.358;6.382;2023-03-03T02:02:09;5.93;;;5.33;;
17854;SDS011;9053;53.358;6.382;2023-03-03T02:04:39;6.20;;;5.60;;
17854;SDS011;9053;53.358;6.382;2023-03-03T02:07:09;7.43;;;5.20;;
17854;SDS011;9053;53.358;6.382;2023-03-03T02:09:43;6.07;;;4.60;;
17854;SDS011;9053;53.358;6.382;2023-03-03T02:12:19;6.73;;;5.03;;
17854;SDS011;9053;53.358;6.382;2023-03-03T02:14:57;4.63;;;4.13;;
17854;SDS011;9053;53.358;6.382;2023-03-03T02:17:27;6.50;;;5.20;;
17854;SDS011;9053;53.358;6.382;2023-03-03T02:20:00;5.67;;;4.40;;
17854;SDS011;9053;53.358;6.382;2023-03-03T02:22:36;5.43;;;4.20;;
17854;SDS011;9053;53.358;6.382;2023-03-03T02:25:13;5.10;;;4.60;;
17854;SDS011;9053;53.358;6.382;2023-03-03T02:27:52;6.33;;;4.13;;
17854;SDS011;9053;53.358;6.382;2023-03-03T02:30:23;4.97;;;4.47;;
17854;SDS011;9053;53.358;6.382;2023-03-03T02:32:53;6.37;;;4.43;;
17854;SDS011;9053;53.358;6.382;2023-03-03T02:35:28;5.43;;;4.23;;
17854;SDS011;9053;53.358;6.382;2023-03-03T02:38:06;7.50;;;4.27;;
17854;SDS011;9053;53.358;6.382;2023-03-03T02:40:43;5.57;;;4.07;;
17854;SDS011;9053;53.358;6.382;2023-03-03T02:43:22;6.53;;;4.50;;
17854;SDS011;9053;53.358;6.382;2023-03-03T02:45:55;4.77;;;4.07;;
17854;SDS011;9053;53.358;6.382;2023-03-03T02:48:25;5.10;;;3.63;;
17854;SDS011;9053;53.358;6.382;2023-03-03T02:50:55;5.53;;;3.90;;
17854;SDS011;9053;53.358;6.382;2023-03-03T02:53:24;5.07;;;4.20;;
17854;SDS011;9053;53.358;6.382;2023-03-03T02:55:54;4.57;;;3.60;;
17854;SDS011;9053;53.358;6.382;2023-03-03T02:58:27;5.00;;;3.57;;
17854;SDS011;9053;53.358;6.382;2023-03-03T03:00:57;6.17;;;3.97;;
17854;SDS011;9053;53.358;6.382;2023-03-03T03:03:27;5.17;;;3.80;;
17854;SDS011;9053;53.358;6.382;2023-03-03T03:05:57;4.83;;;3.47;;
17854;SDS011;9053;53.358;6.382;2023-03-03T03:08:27;6.10;;;3.43;;
17854;SDS011;9053;53.358;6.382;2023-03-03T03:10:57;5.30;;;3.57;;
17854;SDS011;9053;53.358;6.382;2023-03-03T03:13:29;3.83;;;2.77;;
17854;SDS011;9053;53.358;6.382;2023-03-03T03:16:01;6.27;;;3.37;;
17854;SDS011;9053;53.358;6.382;2023-03-03T03:18:32;3.37;;;2.90;;
17854;SDS011;9053;53.358;6.382;2023-03-03T03:21:06;6.00;;;3.43;;
17854;SDS011;9053;53.358;6.382;2023-03-03T03:23:36;5.00;;;3.07;;
17854;SDS011;9053;53.358;6.382;2023-03-03T03:26:09;3.57;;;3.10;;
17854;SDS011;9053;53.358;6.382;2023-03-03T03:28:41;4.10;;;2.63;;
17854;SDS011;9053;53.358;6.382;2023-03-03T03:31:11;4.50;;;2.83;;
17854;SDS011;9053;53.358;6.382;2023-03-03T03:33:41;4.17;;;3.20;;
17854;SDS011;9053;53.358;6.382;2023-03-03T03:36:11;6.43;;;3.27;;
17854;SDS011;9053;53.358;6.382;2023-03-03T03:38:41;3.43;;;2.63;;
17854;SDS011;9053;53.358;6.382;2023-03-03T03:41:11;3.47;;;2.40;;
17854;SDS011;9053;53.358;6.382;2023-03-03T03:43:44;4.23;;;2.63;;
17854;SDS011;9053;53.358;6.382;2023-03-03T03:46:14;4.37;;;3.17;;
17854;SDS011;9053;53.358;6.382;2023-03-03T03:48:45;3.17;;;2.00;;
17854;SDS011;9053;53.358;6.382;2023-03-03T03:51:14;5.03;;;2.63;;
17854;SDS011;9053;53.358;6.382;2023-03-03T03:53:45;3.73;;;2.50;;
17854;SDS011;9053;53.358;6.382;2023-03-03T03:56:15;2.90;;;2.33;;
17854;SDS011;9053;53.358;6.382;2023-03-03T03:58:48;2.70;;;2.50;;
17854;SDS011;9053;53.358;6.382;2023-03-03T04:01:18;3.33;;;2.20;;
17854;SDS011;9053;53.358;6.382;2023-03-03T04:03:49;3.43;;;2.37;;
17854;SDS011;9053;53.358;6.382;2023-03-03T04:06:19;2.60;;;2.40;;
17854;SDS011;9053;53.358;6.382;2023-03-03T04:08:49;3.77;;;2.50;;
17854;SDS011;9053;53.358;6.382;2023-03-03T04:11:19;2.60;;;2.33;;
17854;SDS011;9053;53.358;6.382;2023-03-03T04:13:51;3.60;;;2.10;;
17854;SDS011;9053;53.358;6.382;2023-03-03T04:16:22;3.27;;;2.07;;
17854;SDS011;9053;53.358;6.382;2023-03-03T04:18:53;3.97;;;1.50;;
17854;SDS011;9053;53.358;6.382;2023-03-03T04:21:25;1.93;;;1.50;;
17854;SDS011;9053;53.358;6.382;2023-03-03T04:23:55;3.00;;;1.50;;
17854;SDS011;9053;53.358;6.382;2023-03-03T04:26:27;2.97;;;1.87;;
17854;SDS011;9053;53.358;6.382;2023-03-03T04:28:59;2.63;;;1.53;;
17854;SDS011;9053;53.358;6.382;2023-03-03T04:31:29;2.37;;;1.23;;
17854;SDS011;9053;53.358;6.382;2023-03-03T04:33:59;2.43;;;1.40;;
17854;SDS011;9053;53.358;6.382;2023-03-03T04:36:29;1.77;;;1.40;;
17854;SDS011;9053;53.358;6.382;2023-03-03T04:38:59;2.57;;;1.53;;
17854;SDS011;9053;53.358;6.382;2023-03-03T04:41:30;1.40;;;1.23;;
17854;SDS011;9053;53.358;6.382;2023-03-03T04:44:03;2.27;;;1.43;;
17854;SDS011;9053;53.358;6.382;2023-03-03T04:46:33;2.33;;;1.33;;
17854;SDS011;9053;53.358;6.382;2023-03-03T04:49:03;2.93;;;1.67;;
17854;SDS011;9053;53.358;6.382;2023-03-03T04:51:37;1.77;;;1.33;;
17854;SDS011;9053;53.358;6.382;2023-03-03T04:54:07;2.67;;;1.60;;
17854;SDS011;9053;53.358;6.382;2023-03-03T04:56:37;2.63;;;1.23;;
17854;SDS011;9053;53.358;6.382;2023-03-03T04:59:10;2.47;;;1.30;;
17854;SDS011;9053;53.358;6.382;2023-03-03T05:01:40;1.37;;;1.20;;
17854;SDS011;9053;53.358;6.382;2023-03-03T05:04:11;1.40;;;1.30;;
17854;SDS011;9053;53.358;6.382;2023-03-03T05:06:41;1.60;;;1.20;;
17854;SDS011;9053;53.358;6.382;2023-03-03T05:09:11;2.00;;;1.30;;
17854;SDS011;9053;53.358;6.382;2023-03-03T05:11:41;1.77;;;1.30;;
17854;SDS011;9053;53.358;6.382;2023-03-03T05:14:13;3.30;;;2.00;;
17854;SDS011;9053;53.358;6.382;2023-03-03T05:16:43;2.47;;;1.33;;
17854;SDS011;9053;53.358;6.382;2023-03-03T05:19:18;1.73;;;1.20;;
17854;SDS011;9053;53.358;6.382;2023-03-03T05:21:48;1.47;;;1.10;;
17854;SDS011;9053;53.358;6.382;2023-03-03T05:24:18;2.70;;;1.50;;
17854;SDS011;9053;53.358;6.382;2023-03-03T05:26:47;1.57;;;1.10;;
17854;SDS011;9053;53.358;6.382;2023-03-03T05:29:20;2.60;;;1.00;;
17854;SDS011;9053;53.358;6.382;2023-03-03T05:31:51;1.30;;;1.07;;
17854;SDS011;9053;53.358;6.382;2023-03-03T05:34:21;3.00;;;1.30;;
17854;SDS011;9053;53.358;6.382;2023-03-03T05:36:51;2.73;;;1.37;;
17854;SDS011;9053;53.358;6.382;2023-03-03T05:39:21;2.13;;;0.97;;
17854;SDS011;9053;53.358;6.382;2023-03-03T05:41:52;2.43;;;1.13;;
17854;SDS011;9053;53.358;6.382;2023-03-03T05:44:25;2.97;;;1.47;;
17854;SDS011;9053;53.358;6.382;2023-03-03T05:46:55;3.17;;;1.20;;
17854;SDS011;9053;53.358;6.382;2023-03-03T05:49:25;1.90;;;1.50;;
17854;SDS011;9053;53.358;6.382;2023-03-03T05:51:55;3.27;;;1.00;;
17854;SDS011;9053;53.358;6.382;2023-03-03T05:54:25;2.27;;;1.20;;
17854;SDS011;9053;53.358;6.382;2023-03-03T05:56:55;4.17;;;1.67;;
17854;SDS011;9053;53.358;6.382;2023-03-03T05:59:28;2.33;;;1.30;;
17854;SDS011;9053;53.358;6.382;2023-03-03T06:01:58;2.43;;;1.70;;
17854;SDS011;9053;53.358;6.382;2023-03-03T06:04:28;2.43;;;1.50;;
17854;SDS011;9053;53.358;6.382;2023-03-03T06:07:01;2.93;;;1.63;;
17854;SDS011;9053;53.358;6.382;2023-03-03T06:09:31;3.13;;;1.57;;
17854;SDS011;9053;53.358;6.382;2023-03-03T06:12:02;2.90;;;1.70;;
17854;SDS011;9053;53.358;6.382;2023-03-03T06:14:37;3.27;;;1.40;;
17854;SDS011;9053;53.358;6.382;2023-03-03T06:17:06;2.43;;;1.60;;
17854;SDS011;9053;53.358;6.382;2023-03-03T06:19:37;3.77;;;1.30;;
17854;SDS011;9053;53.358;6.382;2023-03-03T06:22:07;2.40;;;1.63;;
17854;SDS011;9053;53.358;6.382;2023-03-03T06:24:37;3.23;;;1.30;;
17854;SDS011;9053;53.358;6.382;2023-03-03T06:27:08;4.20;;;1.55;;
17854;SDS011;9053;53.358;6.382;2023-03-03T06:29:40;2.70;;;1.40;;
17854;SDS011;9053;53.358;6.382;2023-03-03T06:32:11;1.90;;;1.40;;
17854;SDS011;9053;53.358;6.382;2023-03-03T06:34:41;3.00;;;1.43;;
17854;SDS011;9053;53.358;6.382;2023-03-03T06:37:11;3.67;;;1.60;;
17854;SDS011;9053;53.358;6.382;2023-03-03T06:39:41;1.77;;;1.30;;
17854;SDS011;9053;53.358;6.382;2023-03-03T06:42:11;2.20;;;1.50;;
17854;SDS011;9053;53.358;6.382;2023-03-03T06:44:43;2.57;;;1.20;;
17854;SDS011;9053;53.358;6.382;2023-03-03T06:47:17;3.33;;;1.60;;
17854;SDS011;9053;53.358;6.382;2023-03-03T06:49:47;3.27;;;1.50;;
17854;SDS011;9053;53.358;6.382;2023-03-03T06:52:18;4.20;;;2.03;;
17854;SDS011;9053;53.358;6.382;2023-03-03T06:54:51;3.13;;;1.70;;
17854;SDS011;9053;53.358;6.382;2023-03-03T06:57:24;3.70;;;1.90;;
17854;SDS011;9053;53.358;6.382;2023-03-03T06:59:59;2.20;;;1.73;;
17854;SDS011;9053;53.358;6.382;2023-03-03T07:02:40;4.10;;;2.07;;
17854;SDS011;9053;53.358;6.382;2023-03-03T07:05:11;3.10;;;2.27;;
17854;SDS011;9053;53.358;6.382;2023-03-03T07:07:47;3.60;;;2.23;;
17854;SDS011;9053;53.358;6.382;2023-03-03T07:10:24;3.00;;;2.13;;
17854;SDS011;9053;53.358;6.382;2023-03-03T07:13:00;4.43;;;2.27;;
17854;SDS011;9053;53.358;6.382;2023-03-03T07:15:47;2.63;;;2.20;;
17854;SDS011;9053;53.358;6.382;2023-03-03T07:18:30;3.60;;;2.20;;
17854;SDS011;9053;53.358;6.382;2023-03-03T07:21:07;2.37;;;1.80;;
17854;SDS011;9053;53.358;6.382;2023-03-03T07:23:44;3.27;;;1.90;;
17854;SDS011;9053;53.358;6.382;2023-03-03T07:26:17;3.43;;;2.27;;
17854;SDS011;9053;53.358;6.382;2023-03-03T07:28:51;3.63;;;2.00;;
17854;SDS011;9053;53.358;6.382;2023-03-03T07:31:29;3.87;;;2.27;;
17854;SDS011;9053;53.358;6.382;2023-03-03T07:34:04;3.07;;;1.90;;
17854;SDS011;9053;53.358;6.382;2023-03-03T07:36:47;3.17;;;2.00;;
17854;SDS011;9053;53.358;6.382;2023-03-03T07:39:25;2.30;;;2.10;;
17854;SDS011;9053;53.358;6.382;2023-03-03T07:42:11;2.73;;;2.43;;
17854;SDS011;9053;53.358;6.382;2023-03-03T07:44:46;3.27;;;2.20;;
17854;SDS011;9053;53.358;6.382;2023-03-03T07:47:21;3.30;;;2.63;;
17854;SDS011;9053;53.358;6.382;2023-03-03T07:49:53;3.60;;;2.70;;
17854;SDS011;9053;53.358;6.382;2023-03-03T07:52:26;4.30;;;2.80;;
17854;SDS011;9053;53.358;6.382;2023-03-03T07:54:59;4.23;;;2.63;;
17854;SDS011;9053;53.358;6.382;2023-03-03T07:57:34;2.70;;;2.40;;
17854;SDS011;9053;53.358;6.382;2023-03-03T08:01:17;4.57;;;2.90;;
17854;SDS011;9053;53.358;6.382;2023-03-03T08:03:26;2.27;;;1.80;;
17854;SDS011;9053;53.358;6.382;2023-03-03T08:05:56;2.87;;;1.40;;
17854;SDS011;9053;53.358;6.382;2023-03-03T08:08:29;1.60;;;1.50;;
17854;SDS011;9053;53.358;6.382;2023-03-03T08:11:03;2.20;;;1.83;;
17854;SDS011;9053;53.358;6.382;2023-03-03T08:13:38;2.63;;;2.10;;
17854;SDS011;9053;53.358;6.382;2023-03-03T08:19:08;3.27;;;2.40;;
17854;SDS011;9053;53.358;6.382;2023-03-03T08:21:43;1.87;;;1.67;;
17854;SDS011;9053;53.358;6.382;2023-03-03T08:24:13;2.17;;;1.93;;
17854;SDS011;9053;53.358;6.382;2023-03-03T08:26:44;2.60;;;1.50;;
17854;SDS011;9053;53.358;6.382;2023-03-03T08:29:14;2.20;;;1.60;;
17854;SDS011;9053;53.358;6.382;2023-03-03T08:31:43;2.17;;;1.20;;
17854;SDS011;9053;53.358;6.382;2023-03-03T08:34:16;1.93;;;1.43;;
17854;SDS011;9053;53.358;6.382;2023-03-03T08:36:46;2.53;;;1.10;;
17854;SDS011;9053;53.358;6.382;2023-03-03T08:39:16;1.60;;;1.50;;
17854;SDS011;9053;53.358;6.382;2023-03-03T08:41:46;4.60;;;1.83;;
17854;SDS011;9053;53.358;6.382;2023-03-03T08:44:15;3.30;;;1.70;;
17854;SDS011;9053;53.358;6.382;2023-03-03T08:46:46;2.47;;;1.50;;
17854;SDS011;9053;53.358;6.382;2023-03-03T08:49:18;1.87;;;1.20;;
17854;SDS011;9053;53.358;6.382;2023-03-03T08:51:49;1.87;;;1.10;;
17854;SDS011;9053;53.358;6.382;2023-03-03T08:54:20;2.27;;;1.67;;
17854;SDS011;9053;53.358;6.382;2023-03-03T08:56:50;2.53;;;1.40;;
17854;SDS011;9053;53.358;6.382;2023-03-03T08:59:20;1.93;;;1.37;;
17854;SDS011;9053;53.358;6.382;2023-03-03T09:01:50;2.23;;;1.43;;
17854;SDS011;9053;53.358;6.382;2023-03-03T09:04:23;3.13;;;1.53;;
17854;SDS011;9053;53.358;6.382;2023-03-03T09:06:53;3.77;;;1.37;;
17854;SDS011;9053;53.358;6.382;2023-03-03T09:09:23;4.93;;;1.70;;
17854;SDS011;9053;53.358;6.382;2023-03-03T09:11:54;3.07;;;1.40;;
17854;SDS011;9053;53.358;6.382;2023-03-03T09:14:28;4.20;;;1.50;;
17854;SDS011;9053;53.358;6.382;2023-03-03T09:16:58;2.23;;;1.30;;
17854;SDS011;9053;53.358;6.382;2023-03-03T09:19:32;3.30;;;1.50;;
17854;SDS011;9053;53.358;6.382;2023-03-03T09:22:10;4.73;;;1.53;;
17854;SDS011;9053;53.358;6.382;2023-03-03T09:24:48;3.27;;;1.43;;
17854;SDS011;9053;53.358;6.382;2023-03-03T09:27:23;2.00;;;1.57;;
17854;SDS011;9053;53.358;6.382;2023-03-03T09:29:59;2.87;;;1.50;;
17854;SDS011;9053;53.358;6.382;2023-03-03T09:32:32;1.70;;;1.23;;
17854;SDS011;9053;53.358;6.382;2023-03-03T09:38:09;2.60;;;1.27;;
17854;SDS011;9053;53.358;6.382;2023-03-03T09:41:11;2.17;;;1.50;;
17854;SDS011;9053;53.358;6.382;2023-03-03T09:43:58;2.50;;;1.20;;
17854;SDS011;9053;53.358;6.382;2023-03-03T09:46:44;1.70;;;1.20;;
17854;SDS011;9053;53.358;6.382;2023-03-03T09:49:27;2.43;;;1.20;;
17854;SDS011;9053;53.358;6.382;2023-03-03T09:54:58;2.10;;;1.00;;
17854;SDS011;9053;53.358;6.382;2023-03-03T09:57:50;2.97;;;1.40;;
17854;SDS011;9053;53.358;6.382;2023-03-03T10:00:40;1.60;;;1.10;;
17854;SDS011;9053;53.358;6.382;2023-03-03T10:03:25;3.60;;;1.20;;
17854;SDS011;9053;53.358;6.382;2023-03-03T10:06:10;2.00;;;1.10;;
17854;SDS011;9053;53.358;6.382;2023-03-03T10:08:55;2.43;;;0.90;;
17854;SDS011;9053;53.358;6.382;2023-03-03T10:11:34;0.87;;;0.87;;
17854;SDS011;9053;53.358;6.382;2023-03-03T10:14:14;6.50;;;1.50;;
17854;SDS011;9053;53.358;6.382;2023-03-03T10:17:06;2.37;;;1.10;;
17854;SDS011;9053;53.358;6.382;2023-03-03T10:19:50;2.93;;;1.10;;
17854;SDS011;9053;53.358;6.382;2023-03-03T10:22:38;2.07;;;1.23;;
17854;SDS011;9053;53.358;6.382;2023-03-03T10:25:20;2.63;;;1.20;;
17854;SDS011;9053;53.358;6.382;2023-03-03T10:28:12;4.00;;;1.47;;
17854;SDS011;9053;53.358;6.382;2023-03-03T10:30:58;3.80;;;1.73;;
17854;SDS011;9053;53.358;6.382;2023-03-03T10:33:45;2.43;;;1.40;;
17854;SDS011;9053;53.358;6.382;2023-03-03T10:36:26;2.93;;;1.50;;
17854;SDS011;9053;53.358;6.382;2023-03-03T10:39:08;2.57;;;1.23;;
17854;SDS011;9053;53.358;6.382;2023-03-03T10:41:57;5.13;;;1.10;;
17854;SDS011;9053;53.358;6.382;2023-03-03T10:44:45;2.43;;;1.47;;
17854;SDS011;9053;53.358;6.382;2023-03-03T10:47:31;3.50;;;1.30;;
17854;SDS011;9053;53.358;6.382;2023-03-03T10:50:13;2.83;;;1.73;;
17854;SDS011;9053;53.358;6.382;2023-03-03T10:52:50;3.53;;;1.20;;
17854;SDS011;9053;53.358;6.382;2023-03-03T10:55:35;3.97;;;1.33;;
17854;SDS011;9053;53.358;6.382;2023-03-03T10:58:33;3.63;;;1.60;;
17854;SDS011;9053;53.358;6.382;2023-03-03T11:01:24;3.53;;;1.30;;
17854;SDS011;9053;53.358;6.382;2023-03-03T11:04:08;2.97;;;1.00;;
17854;SDS011;9053;53.358;6.382;2023-03-03T11:07:08;3.70;;;1.67;;
17854;SDS011;9053;53.358;6.382;2023-03-03T11:09:51;4.93;;;1.50;;
17854;SDS011;9053;53.358;6.382;2023-03-03T11:12:33;3.53;;;1.30;;
17854;SDS011;9053;53.358;6.382;2023-03-03T11:18:11;2.70;;;1.50;;
17854;SDS011;9053;53.358;6.382;2023-03-03T11:20:53;6.03;;;2.20;;
17854;SDS011;9053;53.358;6.382;2023-03-03T11:26:33;4.07;;;1.40;;
17854;SDS011;9053;53.358;6.382;2023-03-03T11:29:21;3.30;;;1.53;;
17854;SDS011;9053;53.358;6.382;2023-03-03T11:32:10;4.43;;;1.30;;
17854;SDS011;9053;53.358;6.382;2023-03-03T11:35:00;7.30;;;1.60;;
17854;SDS011;9053;53.358;6.382;2023-03-03T11:37:45;10.53;;;1.97;;
17854;SDS011;9053;53.358;6.382;2023-03-03T11:40:36;10.53;;;1.90;;
17854;SDS011;9053;53.358;6.382;2023-03-03T11:43:15;4.87;;;1.70;;
17854;SDS011;9053;53.358;6.382;2023-03-03T11:46:03;5.07;;;1.43;;
17854;SDS011;9053;53.358;6.382;2023-03-03T11:48:45;5.43;;;1.60;;
17854;SDS011;9053;53.358;6.382;2023-03-03T11:51:22;6.17;;;1.60;;
17854;SDS011;9053;53.358;6.382;2023-03-03T11:54:02;5.67;;;1.70;;
17854;SDS011;9053;53.358;6.382;2023-03-03T11:56:38;8.30;;;2.70;;
17854;SDS011;9053;53.358;6.382;2023-03-03T11:59:17;10.20;;;2.40;;
17854;SDS011;9053;53.358;6.382;2023-03-03T12:01:59;8.97;;;1.73;;
17854;SDS011;9053;53.358;6.382;2023-03-03T12:04:43;4.10;;;1.20;;
17854;SDS011;9053;53.358;6.382;2023-03-03T12:07:21;6.67;;;1.90;;
17854;SDS011;9053;53.358;6.382;2023-03-03T12:10:04;7.83;;;2.50;;
17854;SDS011;9053;53.358;6.382;2023-03-03T12:12:43;7.60;;;1.60;;
17854;SDS011;9053;53.358;6.382;2023-03-03T12:15:23;11.47;;;2.70;;
17854;SDS011;9053;53.358;6.382;2023-03-03T12:21:13;8.83;;;1.87;;
17854;SDS011;9053;53.358;6.382;2023-03-03T12:23:59;6.20;;;1.70;;
17854;SDS011;9053;53.358;6.382;2023-03-03T12:26:53;10.47;;;2.33;;
17854;SDS011;9053;53.358;6.382;2023-03-03T12:29:36;9.27;;;2.47;;
17854;SDS011;9053;53.358;6.382;2023-03-03T12:32:17;12.33;;;3.47;;
17854;SDS011;9053;53.358;6.382;2023-03-03T12:35:04;8.43;;;2.30;;
17854;SDS011;9053;53.358;6.382;2023-03-03T12:37:52;10.73;;;2.67;;
17854;SDS011;9053;53.358;6.382;2023-03-03T12:40:29;7.67;;;2.53;;
17854;SDS011;9053;53.358;6.382;2023-03-03T12:43:15;9.30;;;2.80;;
17854;SDS011;9053;53.358;6.382;2023-03-03T12:45:55;14.67;;;2.73;;
17854;SDS011;9053;53.358;6.382;2023-03-03T12:48:34;15.07;;;3.23;;
17854;SDS011;9053;53.358;6.382;2023-03-03T12:51:11;22.77;;;3.57;;
17854;SDS011;9053;53.358;6.382;2023-03-03T12:53:55;12.83;;;3.17;;
17854;SDS011;9053;53.358;6.382;2023-03-03T12:56:40;12.80;;;3.13;;
17854;SDS011;9053;53.358;6.382;2023-03-03T12:59:15;14.37;;;3.33;;
17854;SDS011;9053;53.358;6.382;2023-03-03T13:02:07;14.40;;;2.97;;
17854;SDS011;9053;53.358;6.382;2023-03-03T13:04:59;15.63;;;3.33;;
17854;SDS011;9053;53.358;6.382;2023-03-03T13:07:37;15.67;;;4.17;;
17854;SDS011;9053;53.358;6.382;2023-03-03T13:10:15;11.43;;;3.00;;
17854;SDS011;9053;53.358;6.382;2023-03-03T13:12:53;11.93;;;3.20;;
17854;SDS011;9053;53.358;6.382;2023-03-03T13:15:27;15.17;;;3.60;;
17854;SDS011;9053;53.358;6.382;2023-03-03T13:18:13;14.60;;;3.40;;
17854;SDS011;9053;53.358;6.382;2023-03-03T13:20:54;14.87;;;3.40;;
17854;SDS011;9053;53.358;6.382;2023-03-03T13:23:34;14.37;;;3.30;;
17854;SDS011;9053;53.358;6.382;2023-03-03T13:26:16;12.33;;;3.50;;
17854;SDS011;9053;53.358;6.382;2023-03-03T13:28:55;9.83;;;2.70;;
17854;SDS011;9053;53.358;6.382;2023-03-03T13:31:32;14.67;;;3.03;;
17854;SDS011;9053;53.358;6.382;2023-03-03T13:34:07;14.53;;;2.90;;
17854;SDS011;9053;53.358;6.382;2023-03-03T13:36:41;9.53;;;2.60;;
17854;SDS011;9053;53.358;6.382;2023-03-03T13:39:18;11.90;;;2.97;;
17854;SDS011;9053;53.358;6.382;2023-03-03T13:41:56;12.93;;;3.20;;
17854;SDS011;9053;53.358;6.382;2023-03-03T13:44:30;15.73;;;3.10;;
17854;SDS011;9053;53.358;6.382;2023-03-03T13:47:11;11.10;;;2.70;;
17854;SDS011;9053;53.358;6.382;2023-03-03T13:49:47;16.50;;;3.87;;
17854;SDS011;9053;53.358;6.382;2023-03-03T13:52:42;14.93;;;3.00;;
17854;SDS011;9053;53.358;6.382;2023-03-03T13:55:21;13.03;;;2.90;;
17854;SDS011;9053;53.358;6.382;2023-03-03T13:58:02;9.13;;;3.03;;
17854;SDS011;9053;53.358;6.382;2023-03-03T14:00:47;11.50;;;3.03;;
17854;SDS011;9053;53.358;6.382;2023-03-03T14:06:17;15.83;;;3.50;;
17854;SDS011;9053;53.358;6.382;2023-03-03T14:08:57;15.67;;;3.30;;
17854;SDS011;9053;53.358;6.382;2023-03-03T14:11:35;13.67;;;3.47;;
17854;SDS011;9053;53.358;6.382;2023-03-03T14:14:17;13.40;;;3.00;;
17854;SDS011;9053;53.358;6.382;2023-03-03T14:16:57;11.97;;;2.60;;
17854;SDS011;9053;53.358;6.382;2023-03-03T14:19:33;17.20;;;3.13;;
17854;SDS011;9053;53.358;6.382;2023-03-03T14:22:07;10.90;;;3.13;;
17854;SDS011;9053;53.358;6.382;2023-03-03T14:24:56;12.33;;;2.97;;
17854;SDS011;9053;53.358;6.382;2023-03-03T14:27:35;10.13;;;3.10;;
17854;SDS011;9053;53.358;6.382;2023-03-03T14:32:59;14.97;;;3.37;;
17854;SDS011;9053;53.358;6.382;2023-03-03T14:35:34;11.03;;;2.83;;
17854;SDS011;9053;53.358;6.382;2023-03-03T14:38:08;13.17;;;4.20;;
17854;SDS011;9053;53.358;6.382;2023-03-03T14:40:41;15.07;;;3.77;;
17854;SDS011;9053;53.358;6.382;2023-03-03T14:43:21;16.07;;;3.43;;
17854;SDS011;9053;53.358;6.382;2023-03-03T14:45:56;11.90;;;3.17;;
17854;SDS011;9053;53.358;6.382;2023-03-03T14:48:51;15.87;;;3.30;;
17854;SDS011;9053;53.358;6.382;2023-03-03T14:51:23;22.13;;;3.60;;
17854;SDS011;9053;53.358;6.382;2023-03-03T14:53:54;16.13;;;3.60;;
17854;SDS011;9053;53.358;6.382;2023-03-03T14:56:26;13.87;;;2.93;;
17854;SDS011;9053;53.358;6.382;2023-03-03T14:59:11;13.77;;;3.73;;
17854;SDS011;9053;53.358;6.382;2023-03-03T15:01:50;11.60;;;3.00;;
17854;SDS011;9053;53.358;6.382;2023-03-03T15:04:26;9.53;;;3.03;;
17854;SDS011;9053;53.358;6.382;2023-03-03T15:07:14;11.77;;;3.07;;
17854;SDS011;9053;53.358;6.382;2023-03-03T15:09:56;13.53;;;3.13;;
17854;SDS011;9053;53.358;6.382;2023-03-03T15:12:26;14.90;;;3.70;;
17854;SDS011;9053;53.358;6.382;2023-03-03T15:15:10;15.17;;;3.83;;
17854;SDS011;9053;53.358;6.382;2023-03-03T15:18:12;18.57;;;4.13;;
17854;SDS011;9053;53.358;6.382;2023-03-03T15:20:42;13.63;;;3.50;;
17854;SDS011;9053;53.358;6.382;2023-03-03T15:26:19;14.73;;;3.80;;
17854;SDS011;9053;53.358;6.382;2023-03-03T15:28:58;15.17;;;3.03;;
17854;SDS011;9053;53.358;6.382;2023-03-03T15:31:37;15.90;;;3.50;;
17854;SDS011;9053;53.358;6.382;2023-03-03T15:34:23;17.33;;;4.10;;
17854;SDS011;9053;53.358;6.382;2023-03-03T15:37:20;12.27;;;3.37;;
17854;SDS011;9053;53.358;6.382;2023-03-03T15:40:10;17.70;;;3.57;;
17854;SDS011;9053;53.358;6.382;2023-03-03T15:42:47;14.60;;;3.27;;
17854;SDS011;9053;53.358;6.382;2023-03-03T15:45:19;13.60;;;3.03;;
17854;SDS011;9053;53.358;6.382;2023-03-03T15:47:58;14.03;;;3.53;;
17854;SDS011;9053;53.358;6.382;2023-03-03T15:50:46;16.10;;;3.90;;
17854;SDS011;9053;53.358;6.382;2023-03-03T15:56:27;10.13;;;3.00;;
17854;SDS011;9053;53.358;6.382;2023-03-03T16:02:09;21.37;;;4.27;;
17854;SDS011;9053;53.358;6.382;2023-03-03T16:04:47;19.90;;;4.00;;
17854;SDS011;9053;53.358;6.382;2023-03-03T16:07:28;19.63;;;4.30;;
17854;SDS011;9053;53.358;6.382;2023-03-03T16:10:13;23.50;;;4.97;;
17854;SDS011;9053;53.358;6.382;2023-03-03T16:12:53;16.77;;;3.90;;
17854;SDS011;9053;53.358;6.382;2023-03-03T16:15:33;18.30;;;4.33;;
17854;SDS011;9053;53.358;6.382;2023-03-03T16:18:14;16.77;;;3.37;;
17854;SDS011;9053;53.358;6.382;2023-03-03T16:20:56;14.90;;;3.20;;
17854;SDS011;9053;53.358;6.382;2023-03-03T16:23:40;21.03;;;4.80;;
17854;SDS011;9053;53.358;6.382;2023-03-03T16:26:17;13.77;;;3.67;;
17854;SDS011;9053;53.358;6.382;2023-03-03T16:29:11;19.33;;;4.17;;
17854;SDS011;9053;53.358;6.382;2023-03-03T16:31:55;19.53;;;3.83;;
17854;SDS011;9053;53.358;6.382;2023-03-03T16:34:30;19.53;;;3.97;;
17854;SDS011;9053;53.358;6.382;2023-03-03T16:37:06;18.20;;;3.63;;
17854;SDS011;9053;53.358;6.382;2023-03-03T16:39:52;16.90;;;3.13;;